createdAt,value
2022-11-20T00:01:35.949Z,98753.44
2022-11-20T00:04:04.359Z,98745.44
2022-11-20T00:06:32.327Z,98752.00
2022-11-20T00:09:02.796Z,98747.15
2022-11-20T00:11:33.054Z,98749.59
2022-11-20T00:14:03.450Z,98754.80
2022-11-20T00:16:34.116Z,98758.46
2022-11-20T00:19:04.113Z,98752.64
2022-11-20T00:21:33.569Z,98749.75
2022-11-20T00:24:01.578Z,98748.02
2022-11-20T00:26:31.411Z,98746.84
2022-11-20T00:29:02.062Z,98744.46
2022-11-20T00:31:31.696Z,98739.65
2022-11-20T00:33:59.463Z,98737.92
2022-11-20T00:36:33.565Z,98741.90
2022-11-20T00:39:01.427Z,98749.12
2022-11-20T00:41:30.956Z,98751.37
2022-11-20T00:44:00.003Z,98753.80
2022-11-20T00:46:29.460Z,98750.84
2022-11-20T00:48:58.513Z,98745.14
2022-11-20T00:51:29.376Z,98741.86
2022-11-20T00:53:58.653Z,98738.73
2022-11-20T00:56:30.397Z,98738.20
2022-11-20T00:59:02.088Z,98731.45
2022-11-20T01:01:31.313Z,98728.49
2022-11-20T01:04:02.292Z,98736.23
2022-11-20T01:06:35.500Z,98730.66
2022-11-20T01:09:09.647Z,98727.67
2022-11-20T01:11:41.059Z,98725.52
2022-11-20T01:14:14.676Z,98724.28
2022-11-20T01:16:53.275Z,98723.23
2022-11-20T01:19:24.463Z,98731.23
2022-11-20T01:21:55.179Z,98741.45
2022-11-20T01:24:24.693Z,98750.44
2022-11-20T01:26:53.645Z,98750.27
2022-11-20T01:29:25.639Z,98749.80
2022-11-20T01:31:54.127Z,98743.39
2022-11-20T01:34:23.676Z,98736.73
2022-11-20T01:36:53.715Z,98733.04
2022-11-20T01:39:25.748Z,98735.41
2022-11-20T01:42:16.249Z,98736.98
2022-11-20T01:44:55.787Z,98733.02
2022-11-20T01:47:37.233Z,98730.44
2022-11-20T01:50:30.198Z,98736.52
2022-11-20T01:53:10.441Z,98741.45
2022-11-20T01:55:51.898Z,98740.16
2022-11-20T01:58:27.040Z,98731.84
2022-11-20T02:00:56.375Z,98728.85
2022-11-20T02:03:27.160Z,98727.80
2022-11-20T02:06:26.189Z,98727.58
2022-11-20T02:08:56.510Z,98724.98
2022-11-20T02:11:24.377Z,98717.34
2022-11-20T02:13:52.242Z,98721.83
2022-11-20T02:16:25.507Z,98716.14
2022-11-20T02:18:57.355Z,98713.89
2022-11-20T02:21:31.609Z,98709.33
2022-11-20T02:24:11.798Z,98704.09
2022-11-20T02:26:53.251Z,98700.23
2022-11-20T02:29:27.465Z,98699.86
2022-11-20T02:31:57.325Z,98699.50
2022-11-20T02:34:25.271Z,98697.64
2022-11-20T02:36:54.723Z,98695.55
2022-11-20T02:39:27.398Z,98684.96
2022-11-20T02:41:57.309Z,98684.95
2022-11-20T02:44:26.644Z,98683.89
2022-11-20T02:47:00.240Z,98688.70
2022-11-20T02:49:28.151Z,98694.75
2022-11-20T02:51:55.872Z,98699.41
2022-11-20T02:54:25.943Z,98702.49
2022-11-20T02:56:53.961Z,98698.69
2022-11-20T02:59:23.548Z,98692.64
2022-11-20T03:01:53.178Z,98698.56
2022-11-20T03:04:22.708Z,98700.20
2022-11-20T03:06:50.675Z,98703.08
2022-11-20T03:09:18.800Z,98707.45
2022-11-20T03:11:50.107Z,98704.02
2022-11-20T03:14:17.934Z,98705.53
2022-11-20T03:16:45.652Z,98702.56
2022-11-20T03:19:15.304Z,98692.71
2022-11-20T03:21:43.220Z,98688.79
2022-11-20T03:24:10.997Z,98685.52
2022-11-20T03:26:41.567Z,98688.63
2022-11-20T03:29:09.409Z,98689.98
2022-11-20T03:31:41.502Z,98688.23
2022-11-20T03:34:12.734Z,98686.70
2022-11-20T03:36:42.757Z,98686.20
2022-11-20T03:39:12.573Z,98680.89
2022-11-20T03:41:43.559Z,98671.85
2022-11-20T03:44:14.241Z,98666.80
2022-11-20T03:46:41.938Z,98664.88
2022-11-20T03:49:09.674Z,98658.44
2022-11-20T03:51:37.427Z,98657.05
2022-11-20T03:54:09.674Z,98652.42
2022-11-20T03:56:40.743Z,98648.82
2022-11-20T03:59:12.804Z,98651.60
2022-11-20T04:01:44.366Z,98652.67
2022-11-20T04:04:16.345Z,98650.83
2022-11-20T04:06:44.296Z,98648.61
2022-11-20T04:09:12.493Z,98650.02
2022-11-20T04:11:42.883Z,98643.88
2022-11-20T04:14:18.894Z,98634.43
2022-11-20T04:16:46.695Z,98635.16
2022-11-20T04:19:17.899Z,98637.61
2022-11-20T04:21:46.001Z,98643.37
2022-11-20T04:24:13.915Z,98648.11
2022-11-20T04:26:43.568Z,98648.80
2022-11-20T04:29:13.715Z,98651.06
2022-11-20T04:31:41.771Z,98652.30
2022-11-20T04:34:14.293Z,98657.52
2022-11-20T04:36:42.057Z,98655.80
2022-11-20T04:39:20.920Z,98647.34
2022-11-20T04:42:09.814Z,98649.77
2022-11-20T04:44:37.542Z,98641.30
2022-11-20T04:47:05.331Z,98637.01
2022-11-20T04:49:35.276Z,98637.88
2022-11-20T04:52:03.792Z,98639.44
2022-11-20T04:54:31.501Z,98638.98
2022-11-20T04:56:59.407Z,98639.20
2022-11-20T04:59:27.479Z,98635.41
2022-11-20T05:01:56.770Z,98636.12
2022-11-20T05:04:26.334Z,98645.49
2022-11-20T05:06:54.030Z,98651.39
2022-11-20T05:09:22.223Z,98649.35
2022-11-20T05:11:51.717Z,98652.66
2022-11-20T05:14:20.959Z,98659.91
2022-11-20T05:16:50.096Z,98659.73
2022-11-20T05:19:17.869Z,98663.70
2022-11-20T05:21:47.595Z,98663.52
2022-11-20T05:24:15.367Z,98669.02
2022-11-20T05:26:45.201Z,98672.64
2022-11-20T05:29:13.177Z,98674.37
2022-11-20T05:31:43.411Z,98668.48
2022-11-20T05:34:13.123Z,98656.18
2022-11-20T05:36:41.064Z,98650.48
2022-11-20T05:39:09.004Z,98644.43
2022-11-20T05:41:39.479Z,98650.86
2022-11-20T05:44:07.301Z,98645.19
2022-11-20T05:46:35.092Z,98633.46
2022-11-20T05:49:04.717Z,98643.52
2022-11-20T05:51:32.725Z,98646.13
2022-11-20T05:54:00.729Z,98646.48
2022-11-20T05:56:28.932Z,98646.16
2022-11-20T05:58:58.855Z,98647.91
2022-11-20T06:01:28.006Z,98642.23
2022-11-20T06:03:56.085Z,98653.53
2022-11-20T06:06:28.749Z,98657.67
2022-11-20T06:09:00.140Z,98651.98
2022-11-20T06:11:28.240Z,98658.37
2022-11-20T06:13:56.231Z,98656.97
2022-11-20T06:16:24.211Z,98646.77
2022-11-20T06:18:52.147Z,98631.58
2022-11-20T06:21:25.030Z,98628.96
2022-11-20T06:23:55.326Z,98632.45
2022-11-20T06:26:28.862Z,98632.67
2022-11-20T06:28:58.679Z,98630.11
2022-11-20T06:31:29.291Z,98643.91
2022-11-20T06:33:57.003Z,98648.23
2022-11-20T06:36:25.040Z,98649.93
2022-11-20T06:38:52.886Z,98655.41
2022-11-20T06:41:25.025Z,98662.11
2022-11-20T06:43:54.776Z,98656.32
2022-11-20T06:46:24.552Z,98658.50
2022-11-20T06:48:52.440Z,98667.08
2022-11-20T06:51:20.344Z,98660.96
2022-11-20T06:53:50.094Z,98648.11
2022-11-20T06:56:17.879Z,98642.33
2022-11-20T06:58:45.725Z,98636.13
2022-11-20T07:01:16.667Z,98624.30
2022-11-20T07:03:45.755Z,98623.90
2022-11-20T07:06:16.760Z,98623.84
2022-11-20T07:08:44.483Z,98622.67
2022-11-20T07:11:15.019Z,98626.84
2022-11-20T07:13:42.865Z,98622.02
2022-11-20T07:16:10.621Z,98624.64
2022-11-20T07:18:38.368Z,98615.72
2022-11-20T07:21:10.472Z,98612.85
2022-11-20T07:23:41.033Z,98610.60
2022-11-20T07:26:12.221Z,98616.48
2022-11-20T07:28:40.211Z,98616.46
2022-11-20T07:31:13.383Z,98613.66
2022-11-20T07:33:45.729Z,98617.65
2022-11-20T07:36:13.473Z,98622.56
2022-11-20T07:38:41.446Z,98617.59
2022-11-20T07:41:09.111Z,98616.20
2022-11-20T07:43:40.964Z,98615.03
2022-11-20T07:46:11.393Z,98615.08
2022-11-20T07:48:39.327Z,98614.96
2022-11-20T07:51:10.109Z,98605.15
2022-11-20T07:53:38.439Z,98605.14
2022-11-20T07:56:08.321Z,98601.84
2022-11-20T07:58:36.346Z,98604.47
2022-11-20T08:01:06.881Z,98604.10
2022-11-20T08:03:35.063Z,98600.27
2022-11-20T08:06:02.970Z,98597.82
2022-11-20T08:08:34.044Z,98591.91
2022-11-20T08:11:21.717Z,98586.91
2022-11-20T08:14:08.551Z,98580.30
2022-11-20T08:16:36.321Z,98580.09
2022-11-20T08:19:04.582Z,98576.45
2022-11-20T08:21:37.824Z,98577.30
2022-11-20T08:24:07.892Z,98576.94
2022-11-20T08:26:39.786Z,98576.50
2022-11-20T08:29:08.762Z,98575.50
2022-11-20T08:31:36.981Z,98573.61
2022-11-20T08:34:24.725Z,98567.59
2022-11-20T08:36:52.484Z,98563.83
2022-11-20T08:39:22.151Z,98569.98
2022-11-20T08:41:51.958Z,98570.42
2022-11-20T08:44:19.656Z,98564.20
2022-11-20T08:46:49.861Z,98570.60
2022-11-20T08:49:18.195Z,98576.98
2022-11-20T08:51:46.369Z,98575.77
2022-11-20T08:54:16.284Z,98579.70
2022-11-20T08:56:44.020Z,98582.88
2022-11-20T08:59:36.817Z,98579.37
2022-11-20T09:02:00.003Z,98574.22
2022-11-20T09:04:28.187Z,98571.98
2022-11-20T09:06:56.531Z,98573.37
2022-11-20T09:09:26.258Z,98579.16
2022-11-20T09:11:54.377Z,98571.77
2022-11-20T09:14:27.522Z,98569.37
2022-11-20T09:16:59.334Z,98576.27
2022-11-20T09:19:35.881Z,98579.41
2022-11-20T09:22:06.101Z,98575.39
2022-11-20T09:24:35.650Z,98571.37
2022-11-20T09:27:06.308Z,98574.55
2022-11-20T09:29:34.231Z,98580.58
2022-11-20T09:32:04.329Z,98582.36
2022-11-20T09:34:33.545Z,98570.98
2022-11-20T09:37:04.574Z,98562.43
2022-11-20T09:39:41.469Z,98563.71
2022-11-20T09:42:41.803Z,98568.68
2022-11-20T09:45:12.398Z,98571.28
2022-11-20T09:48:11.323Z,98566.92
2022-11-20T09:50:57.474Z,98564.14
2022-11-20T09:53:42.410Z,98579.88
2022-11-20T09:56:13.737Z,98592.61
2022-11-20T09:58:52.642Z,98592.73
2022-11-20T10:01:26.432Z,98592.27
2022-11-20T10:04:22.289Z,98588.27
2022-11-20T10:09:56.915Z,98577.54
2022-11-20T10:12:30.724Z,98576.85
2022-11-20T10:14:58.599Z,98565.31
2022-11-20T10:17:45.182Z,98563.10
2022-11-20T10:20:43.889Z,98562.98
2022-11-20T10:23:47.488Z,98560.48
2022-11-20T10:26:31.867Z,98559.52
2022-11-20T10:29:16.869Z,98556.51
2022-11-20T10:31:54.672Z,98550.35
2022-11-20T10:34:35.887Z,98544.08
2022-11-20T10:37:19.934Z,98543.94
2022-11-20T10:40:18.932Z,98550.30
2022-11-20T10:42:57.030Z,98551.01
2022-11-20T10:45:30.868Z,98548.09
2022-11-20T10:48:23.111Z,98550.17
2022-11-20T10:50:58.973Z,98541.67
2022-11-20T10:53:54.155Z,98540.59
2022-11-20T10:56:22.443Z,98539.20
2022-11-20T10:59:29.314Z,98533.48
2022-11-20T11:01:57.095Z,98529.29
2022-11-20T11:04:44.937Z,98514.78
2022-11-20T11:07:28.714Z,98503.84
2022-11-20T11:09:57.726Z,98508.77
2022-11-20T11:12:29.700Z,98507.64
2022-11-20T11:14:59.903Z,98511.28
2022-11-20T11:17:31.669Z,98505.42
2022-11-20T11:20:28.588Z,98499.48
2022-11-20T11:23:00.607Z,98493.95
2022-11-20T11:25:36.430Z,98487.71
2022-11-20T11:28:19.216Z,98487.27
2022-11-20T11:30:51.661Z,98493.16
2022-11-20T11:33:24.395Z,98497.89
2022-11-20T11:36:04.281Z,98501.41
2022-11-20T11:38:39.769Z,98498.61
2022-11-20T11:41:18.134Z,98491.23
2022-11-20T11:44:14.350Z,98487.33
2022-11-20T11:46:54.078Z,98480.81
2022-11-20T11:49:24.449Z,98481.02
2022-11-20T11:52:17.804Z,98474.90
2022-11-20T11:54:51.574Z,98473.40
2022-11-20T11:57:36.139Z,98461.04
2022-11-20T12:00:16.558Z,98456.13
2022-11-20T12:02:47.673Z,98449.41
2022-11-20T12:05:30.349Z,98456.04
2022-11-20T12:08:12.413Z,98461.10
2022-11-20T12:11:00.475Z,98467.84
2022-11-20T12:13:31.255Z,98468.19
2022-11-20T12:16:01.042Z,98473.92
2022-11-20T12:18:30.125Z,98474.33
2022-11-20T12:21:32.935Z,98477.41
2022-11-20T12:24:22.525Z,98475.20
2022-11-20T12:27:14.803Z,98479.23
2022-11-20T12:29:50.369Z,98478.52
2022-11-20T12:32:42.976Z,98476.30
2022-11-20T12:35:26.075Z,98470.70
2022-11-20T12:38:33.430Z,98474.05
2022-11-20T12:41:45.481Z,98475.95
2022-11-20T12:44:47.800Z,98475.16
2022-11-20T12:47:40.090Z,98469.27
2022-11-20T12:50:30.574Z,98459.48
2022-11-20T12:53:25.019Z,98455.44
2022-11-20T12:56:14.811Z,98459.98
2022-11-20T12:59:08.713Z,98460.30
2022-11-20T13:01:53.073Z,98454.23
2022-11-20T13:04:45.979Z,98461.25
2022-11-20T13:07:17.277Z,98459.38
2022-11-20T13:09:48.203Z,98458.65
2022-11-20T13:12:30.176Z,98454.16
2022-11-20T13:15:28.022Z,98449.65
2022-11-20T13:18:00.581Z,98450.14
2022-11-20T13:20:30.967Z,98452.65
2022-11-20T13:23:00.610Z,98453.03
2022-11-20T13:25:37.420Z,98442.92
2022-11-20T13:28:29.205Z,98438.73
2022-11-20T13:31:00.035Z,98433.39
2022-11-20T13:33:37.663Z,98433.52
2022-11-20T13:36:30.115Z,98435.05
2022-11-20T13:39:00.452Z,98431.52
2022-11-20T13:41:42.163Z,98435.19
2022-11-20T13:44:10.085Z,98436.54
2022-11-20T13:46:45.709Z,98435.36
2022-11-20T13:49:49.395Z,98426.97
2022-11-20T13:52:57.539Z,98423.35
2022-11-20T13:55:34.413Z,98413.27
2022-11-20T13:58:24.307Z,98407.42
2022-11-20T14:01:19.876Z,98403.99
2022-11-20T14:04:06.594Z,98404.98
2022-11-20T14:06:49.209Z,98403.02
2022-11-20T14:09:31.830Z,98404.45
2022-11-20T14:12:01.178Z,98406.84
2022-11-20T14:14:34.134Z,98412.70
2022-11-20T14:17:30.982Z,98414.12
2022-11-20T14:20:06.076Z,98417.45
2022-11-20T14:22:34.629Z,98416.23
2022-11-20T14:25:24.354Z,98417.58
2022-11-20T14:27:57.157Z,98420.94
2022-11-20T14:30:29.686Z,98421.67
2022-11-20T14:33:03.454Z,98425.45
2022-11-20T14:35:37.558Z,98426.20
2022-11-20T14:38:11.881Z,98422.04
2022-11-20T14:40:39.751Z,98423.95
2022-11-20T14:43:30.831Z,98426.98
2022-11-20T14:46:04.458Z,98431.90
2022-11-20T14:48:51.464Z,98436.11
2022-11-20T14:51:44.470Z,98440.00
2022-11-20T14:54:19.498Z,98441.20
2022-11-20T14:57:05.172Z,98440.62
2022-11-20T14:59:36.104Z,98431.48
2022-11-20T15:02:11.984Z,98430.74
2022-11-20T15:04:47.591Z,98435.02
2022-11-20T15:07:27.018Z,98426.09
2022-11-20T15:10:12.347Z,98419.20
2022-11-20T15:12:57.985Z,98412.05
2022-11-20T15:15:34.617Z,98414.69
2022-11-20T15:18:05.100Z,98413.48
2022-11-20T15:20:37.037Z,98406.18
2022-11-20T15:23:12.709Z,98406.94
2022-11-20T15:25:43.046Z,98410.68
2022-11-20T15:28:34.761Z,98410.48
2022-11-20T15:31:04.885Z,98413.38
2022-11-20T15:33:34.895Z,98407.73
2022-11-20T15:36:02.703Z,98409.56
2022-11-20T15:38:30.724Z,98414.59
2022-11-20T15:41:00.467Z,98410.23
2022-11-20T15:43:28.445Z,98406.02
2022-11-20T15:46:15.728Z,98400.77
2022-11-20T15:48:50.438Z,98392.36
2022-11-20T15:51:31.876Z,98396.94
2022-11-20T15:54:01.450Z,98410.25
2022-11-20T15:56:29.494Z,98420.41
2022-11-20T15:58:57.302Z,98426.43
2022-11-20T16:01:25.109Z,98425.41
2022-11-20T16:03:54.600Z,98419.13
2022-11-20T16:06:22.375Z,98416.69
2022-11-20T16:08:50.118Z,98418.27
2022-11-20T16:11:18.878Z,98419.48
2022-11-20T16:14:05.226Z,98414.88
2022-11-20T16:16:40.406Z,98411.11
2022-11-20T16:19:13.780Z,98405.80
2022-11-20T16:21:43.196Z,98404.22
2022-11-20T16:24:15.202Z,98398.89
2022-11-20T16:26:43.744Z,98394.60
2022-11-20T16:29:13.047Z,98396.02
2022-11-20T16:31:41.309Z,98398.50
2022-11-20T16:34:12.659Z,98402.87
2022-11-20T16:36:43.762Z,98398.70
2022-11-20T16:39:19.033Z,98402.48
2022-11-20T16:41:50.189Z,98403.51
2022-11-20T16:44:18.116Z,98405.75
2022-11-20T16:46:46.046Z,98404.94
2022-11-20T16:49:16.042Z,98403.16
2022-11-20T16:51:43.747Z,98402.63
2022-11-20T16:54:17.853Z,98400.46
2022-11-20T16:56:49.472Z,98396.67
2022-11-20T16:59:17.640Z,98397.33
2022-11-20T17:01:45.593Z,98397.40
2022-11-20T17:04:15.219Z,98392.64
2022-11-20T17:06:45.559Z,98393.58
2022-11-20T17:09:15.254Z,98388.47
2022-11-20T17:11:43.511Z,98385.37
2022-11-20T17:14:15.355Z,98384.45
2022-11-20T17:16:43.594Z,98396.20
2022-11-20T17:19:13.577Z,98399.99
2022-11-20T17:21:41.495Z,98400.27
2022-11-20T17:24:13.244Z,98398.27
2022-11-20T17:26:43.830Z,98394.89
2022-11-20T17:29:25.778Z,98391.45
2022-11-20T17:31:57.177Z,98392.18
2022-11-20T17:34:25.482Z,98389.11
2022-11-20T17:36:57.320Z,98386.73
2022-11-20T17:39:25.112Z,98380.84
2022-11-20T17:42:11.906Z,98378.64
2022-11-20T17:44:42.153Z,98382.60
2022-11-20T17:47:13.824Z,98380.91
2022-11-20T17:49:42.440Z,98373.86
2022-11-20T17:52:10.403Z,98367.67
2022-11-20T17:54:38.352Z,98368.34
2022-11-20T17:57:27.536Z,98366.15
2022-11-20T17:59:55.377Z,98356.83
2022-11-20T18:02:23.945Z,98347.37
2022-11-20T18:04:52.030Z,98347.63
2022-11-20T18:07:20.135Z,98348.39
2022-11-20T18:09:49.462Z,98348.14
2022-11-20T18:12:18.903Z,98355.01
2022-11-20T18:14:49.167Z,98357.62
2022-11-20T18:17:19.067Z,98350.25
2022-11-20T18:20:07.242Z,98349.54
2022-11-20T18:22:37.473Z,98349.72
2022-11-20T18:25:07.285Z,98351.31
2022-11-20T18:27:35.325Z,98351.83
2022-11-20T18:30:03.399Z,98358.05
2022-11-20T18:32:35.411Z,98360.61
2022-11-20T18:35:03.444Z,98365.68
2022-11-20T18:37:33.447Z,98372.44
2022-11-20T18:40:01.452Z,98369.97
2022-11-20T18:42:48.251Z,98368.64
2022-11-20T18:45:17.323Z,98358.59
2022-11-20T18:47:45.245Z,98353.94
2022-11-20T18:50:14.120Z,98349.01
2022-11-20T18:52:44.715Z,98348.18
2022-11-20T18:55:14.933Z,98349.65
2022-11-20T18:57:42.951Z,98346.99
2022-11-20T19:00:12.964Z,98347.13
2022-11-20T19:02:43.735Z,98348.84
2022-11-20T19:05:14.598Z,98345.95
2022-11-20T19:07:44.288Z,98347.34
2022-11-20T19:10:12.425Z,98351.66
2022-11-20T19:12:40.507Z,98346.23
2022-11-20T19:15:08.693Z,98341.88
2022-11-20T19:17:36.788Z,98336.32
2022-11-20T19:20:06.750Z,98335.80
2022-11-20T19:22:34.870Z,98330.63
2022-11-20T19:25:02.616Z,98333.52
2022-11-20T19:27:32.155Z,98329.77
2022-11-20T19:30:03.967Z,98335.98
2022-11-20T19:32:34.456Z,98334.41
2022-11-20T19:35:04.574Z,98332.59
2022-11-20T19:37:34.646Z,98332.73
2022-11-20T19:40:06.431Z,98335.00
2022-11-20T19:42:34.277Z,98332.69
2022-11-20T19:45:02.024Z,98328.31
2022-11-20T19:47:52.662Z,98329.47
2022-11-20T19:50:17.950Z,98332.67
2022-11-20T19:52:48.420Z,98339.89
2022-11-20T19:55:16.215Z,98339.54
2022-11-20T19:57:44.181Z,98335.52
2022-11-20T20:00:22.029Z,98334.13
2022-11-20T20:02:59.713Z,98333.60
2022-11-20T20:05:27.443Z,98340.88
2022-11-20T20:08:00.807Z,98345.14
2022-11-20T20:10:31.398Z,98348.13
2022-11-20T20:12:59.460Z,98347.27
2022-11-20T20:15:27.542Z,98345.28
2022-11-20T20:17:57.863Z,98340.59
2022-11-20T20:20:25.731Z,98336.41
2022-11-20T20:22:53.468Z,98330.81
2022-11-20T20:25:21.395Z,98326.45
2022-11-20T20:27:49.143Z,98328.34
2022-11-20T20:30:16.951Z,98331.45
2022-11-20T20:32:44.720Z,98320.72
2022-11-20T20:35:12.685Z,98316.20
2022-11-20T20:37:40.424Z,98318.02
2022-11-20T20:40:14.954Z,98314.95
2022-11-20T20:42:43.331Z,98315.92
2022-11-20T20:45:13.710Z,98317.20
2022-11-20T20:47:44.238Z,98319.02
2022-11-20T20:50:14.869Z,98313.90
2022-11-20T20:52:45.320Z,98310.36
2022-11-20T20:55:16.182Z,98312.19
2022-11-20T20:57:44.151Z,98316.27
2022-11-20T21:00:14.541Z,98318.67
2022-11-20T21:02:45.305Z,98321.56
2022-11-20T21:05:13.033Z,98324.82
2022-11-20T21:08:00.756Z,98322.49
2022-11-20T21:10:33.432Z,98324.29
2022-11-20T21:13:01.177Z,98319.52
2022-11-20T21:15:29.094Z,98312.54
2022-11-20T21:17:57.081Z,98312.35
2022-11-20T21:20:43.539Z,98313.80
2022-11-20T21:23:11.307Z,98306.33
2022-11-20T21:25:41.620Z,98304.08
2022-11-20T21:28:16.832Z,98304.35
2022-11-20T21:30:51.574Z,98301.64
2022-11-20T21:33:19.352Z,98302.66
2022-11-20T21:35:51.638Z,98306.60
2022-11-20T21:38:19.363Z,98309.50
2022-11-20T21:40:47.101Z,98311.52
2022-11-20T21:43:14.847Z,98310.27
2022-11-20T21:45:42.775Z,98312.69
2022-11-20T21:48:10.485Z,98307.48
2022-11-20T21:50:38.416Z,98302.77
2022-11-20T21:53:06.995Z,98301.52
2022-11-20T21:55:34.747Z,98301.61
2022-11-20T21:58:02.533Z,98300.17
2022-11-20T22:00:30.547Z,98302.25
2022-11-20T22:02:58.512Z,98300.77
2022-11-20T22:05:26.581Z,98308.30
2022-11-20T22:07:54.289Z,98309.67
2022-11-20T22:10:22.253Z,98317.17
2022-11-20T22:12:50.042Z,98311.05
2022-11-20T22:15:32.994Z,98301.85
2022-11-20T22:18:14.641Z,98300.15
2022-11-20T22:20:42.447Z,98300.48
2022-11-20T22:23:10.282Z,98300.73
2022-11-20T22:25:38.132Z,98304.30
2022-11-20T22:28:06.040Z,98303.59
2022-11-20T22:30:33.764Z,98301.98
2022-11-20T22:33:02.667Z,98297.19
2022-11-20T22:35:30.423Z,98287.06
2022-11-20T22:37:58.445Z,98286.88
2022-11-20T22:40:29.320Z,98286.88
2022-11-20T22:42:57.066Z,98289.66
2022-11-20T22:45:24.890Z,98295.54
2022-11-20T22:47:52.856Z,98291.34
2022-11-20T22:50:20.798Z,98282.81
2022-11-20T22:52:48.734Z,98278.06
2022-11-20T22:55:16.707Z,98289.23
2022-11-20T22:57:44.645Z,98302.52
2022-11-20T23:00:15.569Z,98297.97
2022-11-20T23:02:48.611Z,98300.16
2022-11-20T23:05:16.316Z,98297.83
2022-11-20T23:07:44.047Z,98295.48
2022-11-20T23:10:15.896Z,98295.41
2022-11-20T23:12:43.861Z,98294.92
2022-11-20T23:15:12.945Z,98295.27
2022-11-20T23:17:40.945Z,98289.13
2022-11-20T23:20:11.764Z,98281.59
2022-11-20T23:22:39.511Z,98283.18
2022-11-20T23:25:10.057Z,98293.60
2022-11-20T23:27:38.020Z,98300.08
2022-11-20T23:30:09.357Z,98305.91
2022-11-20T23:32:37.111Z,98303.11
2022-11-20T23:35:08.021Z,98299.70
2022-11-20T23:37:35.983Z,98299.55
2022-11-20T23:40:07.153Z,98297.23
2022-11-20T23:42:35.071Z,98297.36
2022-11-20T23:45:03.566Z,98298.40
2022-11-20T23:47:31.503Z,98296.69
2022-11-20T23:49:59.438Z,98287.15
2022-11-20T23:52:27.348Z,98276.66
2022-11-20T23:54:55.285Z,98273.45
2022-11-20T23:57:23.170Z,98277.52
2022-11-20T23:59:52.518Z,98276.06
